Time;durP1;ratioP1;P1;durP2;ratioP2;P2;SDS_P1;SDS_P2;PMS_P1;PMS_P2;Temp;Humidity;BMP_temperature;BMP_pressure;BME280_temperature;BME280_humidity;BME280_pressure;Samples;Min_cycle;Max_cycle;Signal;HPM_P1;HPM_P2
2021/09/23 00:00:44;;;;;;;29.55;18.65;;;;;;;10.87;100.00;101411.03;5082759;28;20044;-80
2021/09/23 00:03:20;;;;;;;29.58;17.92;;;;;;;10.82;100.00;101406.00;5087038;28;21804;-80
2021/09/23 00:05:48;;;;;;;28.90;17.75;;;;;;;10.85;100.00;101397.06;5052656;28;20074;-80
2021/09/23 00:08:15;;;;;;;34.30;16.83;;;;;;;11.02;100.00;101383.09;5105984;28;20060;-80
2021/09/23 00:10:43;;;;;;;29.42;18.08;;;;;;;11.07;100.00;101386.38;5087001;27;20044;-78
2021/09/23 00:13:11;;;;;;;35.95;17.52;;;;;;;10.93;100.00;101375.66;5088231;28;20065;-80
2021/09/23 00:15:40;;;;;;;31.10;18.33;;;;;;;11.01;100.00;101363.81;5085560;27;20074;-80
2021/09/23 00:18:14;;;;;;;38.75;19.33;;;;;;;10.98;100.00;101349.94;5103476;27;20409;-81
2021/09/23 00:20:45;;;;;;;32.05;20.55;;;;;;;10.83;100.00;101349.75;5077615;28;20139;-80
2021/09/23 00:23:14;;;;;;;35.90;19.63;;;;;;;10.70;100.00;101360.94;5082465;28;20043;-80
2021/09/23 00:25:41;;;;;;;35.53;21.52;;;;;;;10.77;100.00;101357.97;5068229;27;20108;-81
2021/09/23 00:28:09;;;;;;;34.58;21.27;;;;;;;10.90;100.00;101359.06;5083176;28;20613;-81
2021/09/23 00:30:37;;;;;;;33.33;21.80;;;;;;;10.93;100.00;101352.78;5060360;28;20090;-79
2021/09/23 00:33:07;;;;;;;37.22;19.60;;;;;;;11.01;100.00;101347.16;5080845;28;20055;-81
2021/09/23 00:35:34;;;;;;;32.42;19.42;;;;;;;11.06;100.00;101342.50;5079972;28;20054;-80
2021/09/23 00:38:02;;;;;;;31.20;19.13;;;;;;;11.07;100.00;101344.19;5074318;28;20047;-81
2021/09/23 00:40:29;;;;;;;35.83;21.20;;;;;;;10.96;100.00;101343.91;5082186;28;20095;-80
2021/09/23 00:42:58;;;;;;;39.20;20.88;;;;;;;10.90;100.00;101337.16;5086316;28;20035;-80
2021/09/23 00:45:25;;;;;;;34.28;20.20;;;;;;;11.02;100.00;101341.78;5051143;28;20046;-80
2021/09/23 00:47:53;;;;;;;29.55;19.52;;;;;;;11.10;100.00;101328.25;5074798;28;20515;-80
2021/09/23 00:50:23;;;;;;;31.90;19.90;;;;;;;11.12;100.00;101323.75;5103673;28;20390;-80
2021/09/23 00:52:51;;;;;;;28.60;20.10;;;;;;;11.04;100.00;101325.94;5087821;28;20071;-81
2021/09/23 00:55:18;;;;;;;40.08;23.15;;;;;;;10.94;100.00;101317.59;5051155;28;20492;-81
2021/09/23 00:57:46;;;;;;;38.53;22.73;;;;;;;10.85;100.00;101320.69;5084650;28;20040;-81
2021/09/23 01:00:16;;;;;;;33.65;21.10;;;;;;;10.92;100.00;101327.38;5079969;28;20048;-80
2021/09/23 01:02:44;;;;;;;36.70;21.90;;;;;;;10.81;100.00;101324.44;5048309;28;20050;-81
2021/09/23 01:05:14;;;;;;;34.50;23.17;;;;;;;10.65;100.00;101333.06;5101720;27;20067;-81
2021/09/23 01:07:50;;;;;;;36.78;23.48;;;;;;;10.75;100.00;101333.47;5088197;28;20051;-79
2021/09/23 01:10:18;;;;;;;32.92;22.60;;;;;;;10.94;100.00;101316.75;5067543;28;20121;-80
2021/09/23 01:12:46;;;;;;;38.60;22.40;;;;;;;10.92;100.00;101310.72;5084326;28;20234;-82
2021/09/23 01:15:17;;;;;;;42.03;24.20;;;;;;;10.84;100.00;101305.81;5081623;28;21450;-79
2021/09/23 01:17:47;;;;;;;36.58;22.98;;;;;;;10.97;100.00;101304.28;5078674;28;20149;-80
2021/09/23 01:20:16;;;;;;;31.63;21.52;;;;;;;10.95;100.00;101293.00;5084341;28;20125;-80
2021/09/23 01:22:44;;;;;;;40.05;24.42;;;;;;;10.97;100.00;101295.53;5086770;28;20075;-80
2021/09/23 01:25:17;;;;;;;49.05;25.23;;;;;;;10.77;100.00;101283.38;5082399;28;20114;-80
2021/09/23 01:27:45;;;;;;;44.00;25.02;;;;;;;10.85;100.00;101284.69;5081862;28;20067;-81
2021/09/23 01:30:13;;;;;;;36.53;22.98;;;;;;;10.89;100.00;101274.84;5101734;27;20047;-80
2021/09/23 01:32:40;;;;;;;41.47;24.52;;;;;;;10.91;100.00;101273.00;5062450;27;20446;-80
2021/09/23 01:35:09;;;;;;;41.85;26.90;;;;;;;10.90;100.00;101264.25;5075157;28;20052;-79
2021/09/23 01:37:37;;;;;;;44.53;25.27;;;;;;;11.05;100.00;101265.25;5083362;28;20108;-80
2021/09/23 01:40:07;;;;;;;39.40;25.25;;;;;;;10.94;100.00;101256.16;5096439;27;20134;-81
2021/09/23 01:42:35;;;;;;;36.58;26.20;;;;;;;10.84;100.00;101255.78;5083760;27;20043;-79
2021/09/23 01:45:04;;;;;;;38.13;26.95;;;;;;;10.74;100.00;101250.13;5064884;28;20063;-80
2021/09/23 01:47:32;;;;;;;38.28;26.08;;;;;;;10.83;100.00;101247.03;5080454;28;20066;-80
2021/09/23 01:50:00;;;;;;;46.03;28.02;;;;;;;10.80;100.00;101241.91;5099485;28;20101;-80
2021/09/23 01:52:30;;;;;;;39.15;26.90;;;;;;;10.69;100.00;101240.75;5051876;28;20055;-80
2021/09/23 01:54:57;;;;;;;40.83;30.65;;;;;;;10.78;100.00;101246.41;5082193;27;20378;-80
2021/09/23 01:57:25;;;;;;;43.25;29.67;;;;;;;10.65;100.00;101243.53;5103940;28;20096;-79
2021/09/23 01:59:52;;;;;;;45.83;30.27;;;;;;;10.67;100.00;101246.06;5063031;28;20390;-78
2021/09/23 02:02:21;;;;;;;48.35;31.58;;;;;;;10.52;100.00;101234.53;5084533;28;20137;-80
2021/09/23 02:04:54;;;;;;;49.25;32.50;;;;;;;10.47;100.00;101233.91;5063309;28;20047;-80
2021/09/23 02:07:22;;;;;;;47.42;31.85;;;;;;;10.45;100.00;101233.13;5069876;28;20147;-80
2021/09/23 02:09:52;;;;;;;53.35;32.97;;;;;;;10.45;100.00;101242.81;5062728;28;20047;-78
2021/09/23 02:12:22;;;;;;;47.35;31.98;;;;;;;10.47;100.00;101240.94;5086270;28;20079;-79
2021/09/23 02:14:50;;;;;;;49.50;33.33;;;;;;;10.56;100.00;101225.56;5079254;28;20075;-78
2021/09/23 02:17:18;;;;;;;51.08;33.63;;;;;;;10.67;100.00;101218.88;5084875;28;20075;-78
2021/09/23 02:19:45;;;;;;;46.97;31.40;;;;;;;10.83;100.00;101214.56;5099822;27;20052;-80
2021/09/23 02:22:13;;;;;;;48.33;33.00;;;;;;;10.79;100.00;101205.97;5070917;28;20127;-80
2021/09/23 02:24:40;;;;;;;48.97;32.35;;;;;;;10.85;100.00;101215.34;5061998;28;20051;-78
2021/09/23 02:27:08;;;;;;;49.15;32.30;;;;;;;10.86;100.00;101214.44;5087483;28;20040;-78
2021/09/23 02:29:37;;;;;;;45.17;30.25;;;;;;;10.77;100.00;101209.63;5083486;28;20362;-80
2021/09/23 02:32:05;;;;;;;50.30;32.65;;;;;;;10.78;100.00;101209.53;5085247;28;20315;-80
2021/09/23 02:34:33;;;;;;;47.58;32.90;;;;;;;10.71;100.00;101209.91;5078888;28;20139;-80
2021/09/23 02:37:01;;;;;;;40.58;30.63;;;;;;;10.72;100.00;101203.75;5067470;28;20136;-80
2021/09/23 02:39:28;;;;;;;44.80;31.45;;;;;;;10.63;100.00;101203.25;5054714;28;20072;-79
2021/09/23 02:41:56;;;;;;;44.42;29.65;;;;;;;10.72;100.00;101198.47;5085264;28;20470;-80
2021/09/23 02:44:23;;;;;;;48.53;28.08;;;;;;;10.72;100.00;101190.56;5094630;28;20471;-80
2021/09/23 02:46:50;;;;;;;48.42;30.10;;;;;;;10.70;100.00;101185.38;5084530;28;20074;-79
2021/09/23 02:49:18;;;;;;;38.83;26.83;;;;;;;10.65;100.00;101188.22;5097347;28;20542;-79
2021/09/23 02:51:45;;;;;;;37.92;26.55;;;;;;;10.61;100.00;101180.56;5066958;27;20055;-79
2021/09/23 02:54:13;;;;;;;42.50;28.23;;;;;;;10.54;100.00;101174.78;5048212;28;20154;-78
2021/09/23 02:56:40;;;;;;;38.67;26.23;;;;;;;10.50;100.00;101169.72;5082727;28;20130;-80
2021/09/23 02:59:07;;;;;;;41.00;26.45;;;;;;;10.46;100.00;101163.75;5098435;27;20146;-81
2021/09/23 03:01:35;;;;;;;42.00;26.65;;;;;;;10.37;100.00;101157.16;5067938;28;20051;-80
2021/09/23 03:04:03;;;;;;;42.53;25.02;;;;;;;10.42;100.00;101154.31;5098779;28;20440;-80
2021/09/23 03:06:30;;;;;;;38.53;26.80;;;;;;;10.35;100.00;101153.75;5050450;28;20039;-79
2021/09/23 03:08:59;;;;;;;42.47;26.02;;;;;;;10.45;100.00;101138.38;5082879;28;20074;-79
2021/09/23 03:11:27;;;;;;;40.85;26.23;;;;;;;10.48;100.00;101140.84;5084715;28;20055;-80
2021/09/23 03:13:54;;;;;;;39.28;27.80;;;;;;;10.29;100.00;101137.44;5086722;28;20043;-79
2021/09/23 03:16:22;;;;;;;33.38;26.75;;;;;;;10.30;100.00;101131.22;5062899;28;20055;-80
2021/09/23 03:18:49;;;;;;;39.03;28.35;;;;;;;10.26;100.00;101129.66;5103944;27;20092;-80
2021/09/23 03:21:19;;;;;;;39.47;25.42;;;;;;;10.24;100.00;101135.03;5082648;28;20192;-78
2021/09/23 03:23:47;;;;;;;40.88;27.15;;;;;;;10.24;100.00;101136.78;5083463;27;20059;-79
2021/09/23 03:26:14;;;;;;;38.75;26.38;;;;;;;10.19;100.00;101144.03;5081653;28;20040;-80
2021/09/23 03:28:42;;;;;;;41.08;29.35;;;;;;;10.25;100.00;101134.09;5065754;28;20051;-80
2021/09/23 03:31:09;;;;;;;43.67;28.90;;;;;;;10.22;100.00;101146.50;5085355;28;20123;-80
2021/09/23 03:33:37;;;;;;;41.33;28.15;;;;;;;10.17;100.00;101144.09;5082927;28;20499;-82
2021/09/23 03:36:05;;;;;;;43.95;27.77;;;;;;;10.25;100.00;101130.59;5067500;28;20065;-79
2021/09/23 03:38:34;;;;;;;46.53;33.13;;;;;;;10.02;100.00;101129.91;5070815;28;20166;-80
2021/09/23 03:41:02;;;;;;;40.38;29.58;;;;;;;10.08;100.00;101128.75;5083986;28;20508;-80
2021/09/23 03:43:29;;;;;;;50.58;33.40;;;;;;;9.89;100.00;101113.88;5082526;28;20599;-80
2021/09/23 03:45:58;;;;;;;51.30;31.35;;;;;;;9.90;100.00;101115.56;5079279;28;20915;-80
2021/09/23 03:48:26;;;;;;;46.88;32.83;;;;;;;9.77;100.00;101118.88;5078881;28;20048;-79
2021/09/23 03:50:53;;;;;;;48.67;32.78;;;;;;;9.90;100.00;101118.19;5046145;28;20428;-79
2021/09/23 03:53:21;;;;;;;54.67;32.30;;;;;;;9.69;100.00;101116.63;5098510;28;20052;-81
2021/09/23 03:55:48;;;;;;;49.22;32.78;;;;;;;9.63;100.00;101111.63;5063867;28;20048;-79
2021/09/23 03:58:16;;;;;;;55.65;33.72;;;;;;;9.54;100.00;101106.81;5073533;28;20066;-79
2021/09/23 04:00:43;;;;;;;48.47;31.98;;;;;;;9.81;100.00;101102.03;5067184;28;20048;-78
2021/09/23 04:03:11;;;;;;;45.65;32.03;;;;;;;9.68;100.00;101101.78;5069372;28;20043;-81
2021/09/23 04:05:38;;;;;;;53.25;35.53;;;;;;;9.49;100.00;101101.78;5061249;28;20052;-80
2021/09/23 04:08:06;;;;;;;54.33;34.88;;;;;;;9.39;100.00;101114.50;5093812;28;20558;-80
2021/09/23 04:10:33;;;;;;;55.75;34.55;;;;;;;9.32;100.00;101118.34;5090114;28;20130;-80
2021/09/23 04:13:02;;;;;;;57.47;34.55;;;;;;;9.38;100.00;101119.81;5090607;28;20096;-80
2021/09/23 04:15:29;;;;;;;55.95;36.08;;;;;;;9.26;100.00;101120.38;5093974;28;20063;-80
2021/09/23 04:17:57;;;;;;;60.40;37.00;;;;;;;9.46;100.00;101112.44;5102076;28;20093;-80
2021/09/23 04:20:25;;;;;;;54.30;37.20;;;;;;;9.44;100.00;101118.69;5058415;28;20537;-80
2021/09/23 04:22:52;;;;;;;50.70;33.95;;;;;;;9.74;100.00;101106.72;5074957;28;20165;-80
2021/09/23 04:25:19;;;;;;;53.70;35.65;;;;;;;9.82;100.00;101095.84;5070378;28;20043;-80
2021/09/23 04:27:47;;;;;;;47.28;33.67;;;;;;;9.87;100.00;101102.59;5084384;28;20153;-81
2021/09/23 04:30:14;;;;;;;47.70;34.00;;;;;;;9.84;100.00;101094.84;5075535;28;20044;-80
2021/09/23 04:32:42;;;;;;;49.50;34.08;;;;;;;10.05;100.00;101085.06;5081590;28;20176;-80
2021/09/23 04:35:11;;;;;;;57.80;36.70;;;;;;;9.92;100.00;101080.47;5064461;28;20104;-79
2021/09/23 04:37:38;;;;;;;48.70;33.88;;;;;;;10.11;100.00;101071.59;5083517;27;20103;-77
2021/09/23 04:40:07;;;;;;;45.33;33.60;;;;;;;10.05;100.00;101074.53;5089619;28;20059;-79
2021/09/23 04:42:35;;;;;;;56.83;39.90;;;;;;;10.13;100.00;101067.13;5084923;28;20053;-78
2021/09/23 04:45:04;;;;;;;55.28;35.05;;;;;;;10.19;100.00;101057.22;5096012;28;20051;-82
2021/09/23 04:47:32;;;;;;;48.60;34.20;;;;;;;10.23;100.00;101048.25;5087519;28;20040;-80
2021/09/23 04:50:02;;;;;;;50.65;34.85;;;;;;;10.03;100.00;101051.84;5099484;27;20166;-78
2021/09/23 04:52:34;;;;;;;49.63;35.42;;;;;;;10.05;100.00;101052.66;5101215;27;20027;-78
2021/09/23 04:55:09;;;;;;;48.80;35.13;;;;;;;9.90;100.00;101041.94;5086144;28;20063;-77
2021/09/23 04:57:38;;;;;;;45.42;33.13;;;;;;;10.02;100.00;101047.53;5084699;28;20039;-80
2021/09/23 05:00:06;;;;;;;51.42;35.30;;;;;;;10.00;100.00;101046.78;5083415;28;20764;-81
2021/09/23 05:02:38;;;;;;;51.90;36.83;;;;;;;10.06;100.00;101046.44;5071281;28;20043;-81
2021/09/23 05:05:08;;;;;;;56.58;38.33;;;;;;;9.94;100.00;101041.78;5083757;27;20088;-81
2021/09/23 05:07:41;;;;;;;56.35;33.20;;;;;;;9.84;100.00;101039.63;5086316;28;20131;-78
2021/09/23 05:10:09;;;;;;;55.53;36.15;;;;;;;9.97;100.00;101045.13;5078484;28;20044;-79
2021/09/23 05:12:38;;;;;;;57.63;39.08;;;;;;;10.06;100.00;101033.31;5098075;28;20440;-79
2021/09/23 05:15:07;;;;;;;65.80;40.30;;;;;;;9.93;100.00;101043.56;5101524;27;20047;-81
2021/09/23 05:17:34;;;;;;;59.08;39.72;;;;;;;9.99;100.00;101043.25;5067293;28;20385;-78
2021/09/23 05:20:02;;;;;;;58.83;38.15;;;;;;;10.29;100.00;101022.47;5055749;28;20055;-76
2021/09/23 05:22:30;;;;;;;65.88;41.80;;;;;;;10.36;100.00;101023.03;5080611;28;20048;-78
2021/09/23 05:24:58;;;;;;;64.30;37.33;;;;;;;10.42;100.00;101029.75;5063301;28;20062;-79
2021/09/23 05:27:27;;;;;;;62.17;41.30;;;;;;;10.32;100.00;101024.97;5103241;27;20127;-77
2021/09/23 05:29:56;;;;;;;56.08;39.80;;;;;;;10.41;100.00;101014.91;5079404;27;20043;-78
2021/09/23 05:32:27;;;;;;;53.03;36.00;;;;;;;10.52;100.00;101015.19;5096918;28;20052;-79
2021/09/23 05:34:59;;;;;;;59.70;40.83;;;;;;;10.50;100.00;101010.00;5103376;27;20677;-77
2021/09/23 05:37:28;;;;;;;53.60;37.13;;;;;;;10.61;100.00;101015.53;5047005;28;20042;-76
2021/09/23 05:39:55;;;;;;;52.58;36.85;;;;;;;10.73;100.00;101008.78;5081986;27;20039;-77
2021/09/23 05:42:24;;;;;;;51.38;37.08;;;;;;;10.79;100.00;101012.88;5075128;28;20383;-77
2021/09/23 05:44:52;;;;;;;54.28;36.95;;;;;;;10.80;100.00;101015.41;5080621;28;20071;-76
2021/09/23 05:47:22;;;;;;;51.47;34.92;;;;;;;11.05;100.00;101028.13;5102744;28;20123;-77
2021/09/23 05:49:49;;;;;;;55.25;37.10;;;;;;;11.18;100.00;101019.56;5065527;28;20083;-75
2021/09/23 05:52:21;;;;;;;49.17;34.80;;;;;;;11.25;100.00;101021.75;5090530;28;20085;-78
2021/09/23 05:54:49;;;;;;;46.40;34.85;;;;;;;11.46;100.00;101014.44;5099747;27;20485;-77
2021/09/23 05:57:22;;;;;;;45.58;32.45;;;;;;;11.79;100.00;101024.84;5065657;28;20082;-79
2021/09/23 05:59:51;;;;;;;41.85;31.23;;;;;;;12.03;100.00;101019.97;5062365;28;20074;-77
2021/09/23 06:02:19;;;;;;;46.67;32.08;;;;;;;12.26;100.00;101025.69;5084418;28;20071;-77
2021/09/23 06:04:50;;;;;;;42.67;31.30;;;;;;;12.41;100.00;101019.47;5079949;27;20124;-77
2021/09/23 06:07:19;;;;;;;38.38;28.85;;;;;;;12.59;100.00;101025.44;5066936;28;20707;-79
2021/09/23 06:09:47;;;;;;;36.88;28.40;;;;;;;12.63;100.00;101019.88;5095343;28;20524;-74
2021/09/23 06:12:14;;;;;;;42.17;30.35;;;;;;;12.90;100.00;101016.47;5085030;28;20052;-76
2021/09/23 06:14:44;;;;;;;40.78;29.35;;;;;;;12.89;100.00;101020.91;5062606;28;20142;-75
2021/09/23 06:17:13;;;;;;;39.70;29.08;;;;;;;13.03;100.00;101022.69;5065913;28;20067;-77
2021/09/23 06:19:41;;;;;;;37.65;29.02;;;;;;;13.13;100.00;101013.22;5069975;28;20078;-76
2021/09/23 06:22:09;;;;;;;36.15;26.00;;;;;;;13.26;100.00;101007.19;5069495;28;20501;-76
2021/09/23 06:24:36;;;;;;;40.67;28.25;;;;;;;13.39;99.29;101000.19;5068347;28;20510;-76
2021/09/23 06:27:08;;;;;;;43.15;28.60;;;;;;;13.32;98.78;100997.06;5086921;28;20458;-75
2021/09/23 06:29:36;;;;;;;36.45;26.15;;;;;;;13.66;95.64;100990.44;5066910;28;20078;-75
2021/09/23 06:32:06;;;;;;;42.00;28.35;;;;;;;14.40;92.48;100991.59;5067526;28;20600;-76
2021/09/23 06:34:33;;;;;;;34.13;27.10;;;;;;;15.41;86.45;100983.59;5078066;28;20134;-75
2021/09/23 06:37:03;;;;;;;39.13;26.65;;;;;;;16.45;80.86;100971.25;5096024;28;20072;-76
2021/09/23 06:39:31;;;;;;;30.85;24.17;;;;;;;17.65;72.74;100970.47;5089532;28;20680;-77
2021/09/23 06:41:58;;;;;;;36.08;24.15;;;;;;;18.57;69.01;100964.50;5099165;27;20122;-76
2021/09/23 06:44:35;;;;;;;32.20;22.35;;;;;;;20.40;62.59;100960.31;5047471;28;20051;-77
2021/09/23 06:47:05;;;;;;;35.78;23.48;;;;;;;19.51;62.35;100957.88;5103355;28;20129;-76
2021/09/23 06:49:37;;;;;;;37.10;24.63;;;;;;;17.75;67.11;100965.25;5079993;28;20082;-79
2021/09/23 06:52:05;;;;;;;36.28;25.27;;;;;;;16.77;72.96;100964.41;5072602;28;20688;-78
2021/09/23 06:54:35;;;;;;;44.95;23.80;;;;;;;16.91;73.86;100966.81;5099515;28;20666;-76
2021/09/23 06:57:03;;;;;;;37.30;25.10;;;;;;;18.12;68.25;100959.47;5071926;28;20047;-77
2021/09/23 06:59:30;;;;;;;34.53;26.55;;;;;;;18.50;66.10;100947.34;5100279;28;20050;-77
2021/09/23 07:01:58;;;;;;;30.83;23.52;;;;;;;18.50;65.85;100947.34;5080864;28;20131;-77
2021/09/23 07:04:26;;;;;;;29.75;23.38;;;;;;;18.88;65.46;100952.84;5078784;28;20146;-78
2021/09/23 07:06:56;;;;;;;31.40;23.30;;;;;;;19.03;63.27;100937.28;5104516;28;20047;-78
2021/09/23 07:09:24;;;;;;;34.78;24.80;;;;;;;17.74;67.57;100936.06;5043566;28;20800;-78
2021/09/23 07:11:52;;;;;;;34.00;25.70;;;;;;;17.93;67.31;100933.56;5086153;27;20071;-79
2021/09/23 07:14:20;;;;;;;38.70;26.55;;;;;;;17.46;68.46;100933.03;5072049;28;20048;-79
2021/09/23 07:16:48;;;;;;;38.13;26.65;;;;;;;16.34;73.85;100936.69;5084249;28;20052;-78
2021/09/23 07:19:17;;;;;;;33.63;25.17;;;;;;;18.42;66.45;100924.88;5077941;28;20048;-79
2021/09/23 07:21:54;;;;;;;36.40;24.48;;;;;;;20.46;58.39;100927.63;5089150;28;20119;-77
2021/09/23 07:24:22;;;;;;;39.78;23.58;;;;;;;22.26;53.34;100932.09;5053903;28;20432;-78
2021/09/23 07:26:50;;;;;;;34.22;23.58;;;;;;;23.01;50.33;100925.09;5069937;28;20131;-77
2021/09/23 07:29:18;;;;;;;32.70;23.38;;;;;;;24.47;46.35;100928.78;5082465;28;20066;-77
2021/09/23 07:31:47;;;;;;;30.48;22.70;;;;;;;23.56;47.41;100913.75;5071510;28;20044;-78
2021/09/23 07:34:15;;;;;;;33.92;23.67;;;;;;;23.21;49.08;100902.28;5097817;27;20051;-78
2021/09/23 07:36:43;;;;;;;34.80;24.08;;;;;;;23.10;49.48;100908.00;5071005;28;20035;-78
2021/09/23 07:39:11;;;;;;;34.03;24.73;;;;;;;23.31;48.60;100898.59;5081014;28;20051;-81
2021/09/23 07:41:41;;;;;;;34.78;24.92;;;;;;;24.74;44.66;100893.31;5103961;28;20081;-80
2021/09/23 07:44:12;;;;;;;33.67;22.60;;;;;;;26.09;42.20;100887.44;5074967;28;20453;-79
2021/09/23 07:46:41;;;;;;;36.33;22.45;;;;;;;26.67;40.26;100883.03;5079030;28;20051;-78
2021/09/23 07:49:10;;;;;;;31.10;23.05;;;;;;;26.38;39.82;100875.78;5099213;28;20059;-79
2021/09/23 07:51:43;;;;;;;37.88;23.23;;;;;;;24.57;43.88;100870.19;5079239;28;20051;-79
2021/09/23 07:54:13;;;;;;;28.55;21.65;;;;;;;26.58;40.33;100870.69;5095473;28;20119;-80
2021/09/23 07:56:43;;;;;;;33.78;23.17;;;;;;;25.71;41.00;100872.09;5066362;28;20187;-79
2021/09/23 07:59:12;;;;;;;35.92;23.67;;;;;;;25.40;41.55;100860.59;5057488;28;20358;-80
2021/09/23 08:01:42;;;;;;;31.80;22.42;;;;;;;24.63;43.26;100852.47;5064854;28;20055;-78
2021/09/23 08:04:10;;;;;;;35.08;22.13;;;;;;;25.28;42.11;100856.66;5074728;28;20036;-79
2021/09/23 08:06:40;;;;;;;33.72;22.15;;;;;;;24.84;42.59;100852.69;5047063;28;20036;-79
2021/09/23 08:09:07;;;;;;;38.33;22.83;;;;;;;23.45;45.32;100845.03;5088166;28;20097;-81
2021/09/23 08:11:36;;;;;;;31.30;23.77;;;;;;;23.38;45.42;100837.84;5091586;27;20048;-79
2021/09/23 08:14:05;;;;;;;30.35;22.27;;;;;;;23.19;45.88;100839.84;5100866;28;20048;-79
2021/09/23 08:16:36;;;;;;;30.27;21.92;;;;;;;22.80;46.77;100826.16;5087134;28;20410;-78
2021/09/23 08:19:03;;;;;;;40.50;23.98;;;;;;;21.84;49.33;100821.09;5080530;28;20143;-78
2021/09/23 08:21:31;;;;;;;34.47;24.85;;;;;;;20.40;53.38;100818.59;5068609;28;20112;-78
2021/09/23 08:23:58;;;;;;;31.27;22.20;;;;;;;20.80;52.48;100806.66;5106573;28;20074;-79
2021/09/23 08:26:27;;;;;;;38.17;23.13;;;;;;;19.85;55.45;100815.84;5099786;28;20655;-80
2021/09/23 08:28:55;;;;;;;32.60;20.40;;;;;;;19.48;56.76;100811.28;5106050;27;20132;-79
2021/09/23 08:31:24;;;;;;;36.95;26.33;;;;;;;19.10;58.65;100798.84;5105604;28;20054;-77
2021/09/23 08:33:51;;;;;;;35.95;22.40;;;;;;;18.69;59.89;100798.97;5048217;27;20084;-77
2021/09/23 08:36:19;;;;;;;33.13;22.73;;;;;;;18.69;60.49;100782.13;5077389;28;20044;-80
2021/09/23 08:38:47;;;;;;;34.30;22.38;;;;;;;18.67;60.00;100786.69;5075551;28;20455;-80
2021/09/23 08:41:14;;;;;;;33.58;20.80;;;;;;;18.78;60.16;100777.75;5089300;28;20051;-79
2021/09/23 08:43:43;;;;;;;34.10;20.73;;;;;;;18.59;61.15;100771.38;5071833;27;20225;-79
2021/09/23 08:46:10;;;;;;;29.20;18.80;;;;;;;18.46;61.70;100763.69;5090836;28;20052;-78
2021/09/23 08:48:38;;;;;;;47.85;20.98;;;;;;;17.91;63.41;100765.88;5107958;27;20048;-77
2021/09/23 08:51:06;;;;;;;35.00;22.10;;;;;;;17.93;62.76;100758.63;5106259;27;20116;-77
2021/09/23 08:53:33;;;;;;;34.00;20.75;;;;;;;17.97;63.42;100759.19;5085981;28;20138;-77
2021/09/23 08:56:03;;;;;;;30.60;20.17;;;;;;;17.60;65.16;100761.50;5084239;28;20112;-77
2021/09/23 08:58:33;;;;;;;28.35;19.65;;;;;;;17.32;66.53;100755.03;5091373;28;20066;-77
2021/09/23 09:01:08;;;;;;;35.63;21.38;;;;;;;17.54;65.44;100757.56;5084531;28;20471;-79
2021/09/23 09:03:39;;;;;;;28.88;20.13;;;;;;;17.57;65.72;100754.66;5086371;28;20142;-78
2021/09/23 09:06:11;;;;;;;27.33;19.50;;;;;;;17.88;64.73;100744.88;5102484;28;20040;-77
2021/09/23 09:08:42;;;;;;;27.27;19.15;;;;;;;18.05;64.17;100745.19;5070274;28;20055;-81
2021/09/23 09:11:15;;;;;;;28.23;18.15;;;;;;;18.28;62.68;100730.69;5086348;28;20413;-79
2021/09/23 09:13:47;;;;;;;25.27;17.88;;;;;;;19.22;60.25;100734.47;5067325;28;20152;-76
2021/09/23 09:16:26;;;;;;;28.00;18.48;;;;;;;19.01;60.54;100727.66;5084420;28;20052;-78
2021/09/23 09:18:58;;;;;;;27.98;17.55;;;;;;;19.25;59.16;100722.66;5080182;28;20638;-78
2021/09/23 09:21:27;;;;;;;27.48;16.42;;;;;;;19.24;59.57;100726.34;5096320;28;20079;-78
2021/09/23 09:24:00;;;;;;;25.25;18.15;;;;;;;18.46;60.74;100714.81;5073133;28;20051;-77
2021/09/23 09:26:33;;;;;;;38.40;18.42;;;;;;;19.22;59.56;100706.94;5098529;28;20466;-79
2021/09/23 09:29:06;;;;;;;29.35;15.93;;;;;;;19.42;58.94;100705.06;5081949;28;20056;-79
2021/09/23 09:31:36;;;;;;;23.23;15.20;;;;;;;19.84;58.15;100691.28;5061526;28;20081;-78
2021/09/23 09:34:05;;;;;;;22.55;15.45;;;;;;;20.13;56.96;100700.00;5071986;28;20569;-78
2021/09/23 09:36:35;;;;;;;26.60;16.65;;;;;;;19.22;58.68;100694.44;5069223;27;20502;-79
2021/09/23 09:39:11;;;;;;;31.15;15.15;;;;;;;19.48;58.62;100704.47;5104673;28;20067;-78
2021/09/23 09:41:39;;;;;;;;;;;;;;;19.80;57.03;100687.22;5088751;28;20546;-79
2021/09/23 09:44:09;;;;;;;24.77;15.90;;;;;;;19.80;56.75;100690.72;5100690;28;19923;-80
2021/09/23 09:46:49;;;;;;;23.58;15.95;;;;;;;20.02;56.30;100684.16;5083507;28;20040;-76
2021/09/23 09:49:23;;;;;;;24.98;14.95;;;;;;;19.98;56.54;100680.94;5065209;28;20147;-80
2021/09/23 09:51:58;;;;;;;22.92;14.05;;;;;;;19.49;58.33;100666.09;5074439;27;20142;-78
2021/09/23 09:54:31;;;;;;;25.10;14.43;;;;;;;19.85;56.84;100663.56;5082106;28;20051;-78
2021/09/23 09:57:04;;;;;;;23.10;14.40;;;;;;;19.62;58.11;100663.13;5106458;28;20420;-76
2021/09/23 09:59:34;;;;;;;23.05;13.98;;;;;;;19.70;57.83;100657.91;5080708;28;20858;-79
2021/09/23 10:02:03;;;;;;;24.10;13.88;;;;;;;19.35;58.62;100655.91;5086483;28;20134;-79
2021/09/23 10:04:34;;;;;;;23.60;13.48;;;;;;;19.46;57.81;100650.41;5064699;28;20487;-78
2021/09/23 10:07:05;;;;;;;20.23;13.32;;;;;;;19.60;57.89;100649.06;5087291;28;20080;-78
2021/09/23 10:09:35;;;;;;;24.10;14.55;;;;;;;19.47;56.63;100650.25;5081073;28;20036;-78
2021/09/23 10:12:02;;;;;;;27.10;13.75;;;;;;;19.87;56.34;100641.06;5096832;27;20467;-78
2021/09/23 10:14:30;;;;;;;22.73;12.82;;;;;;;20.42;55.70;100635.59;5069071;28;20051;-79
2021/09/23 10:16:58;;;;;;;18.73;12.52;;;;;;;20.72;54.37;100630.88;5081905;28;20478;-81
2021/09/23 10:19:26;;;;;;;18.48;12.77;;;;;;;20.02;56.52;100625.34;5082589;28;20056;-78
2021/09/23 10:21:55;;;;;;;17.92;12.63;;;;;;;20.30;55.07;100622.59;5054121;27;20628;-80
2021/09/23 10:24:23;;;;;;;17.98;12.48;;;;;;;20.38;55.25;100618.19;5078042;28;20124;-77
2021/09/23 10:26:51;;;;;;;19.10;12.95;;;;;;;20.32;54.09;100612.63;5073261;28;20055;-80
2021/09/23 10:29:19;;;;;;;23.13;13.27;;;;;;;20.06;55.58;100613.38;5082210;28;20093;-80
2021/09/23 10:31:46;;;;;;;19.48;13.18;;;;;;;19.93;56.40;100613.75;5084982;28;20063;-79
2021/09/23 10:34:17;;;;;;;19.48;13.60;;;;;;;19.89;55.10;100603.50;5068624;28;20070;-81
2021/09/23 10:36:53;;;;;;;23.02;13.45;;;;;;;19.86;55.25;100595.81;5086019;28;20075;-79
2021/09/23 10:39:23;;;;;;;24.75;12.75;;;;;;;19.57;57.00;100594.13;5083664;28;20048;-81
2021/09/23 10:41:50;;;;;;;20.08;12.35;;;;;;;19.96;55.61;100593.91;5063164;28;20063;-78
2021/09/23 10:44:21;;;;;;;21.40;12.27;;;;;;;20.14;55.74;100581.38;5068909;27;20074;-77
2021/09/23 10:46:59;;;;;;;22.05;11.27;;;;;;;20.48;54.64;100568.16;5072211;28;20066;-80
2021/09/23 10:49:27;;;;;;;19.75;12.35;;;;;;;20.56;54.16;100562.03;5063618;28;20973;-79
2021/09/23 10:51:56;;;;;;;21.42;11.68;;;;;;;19.83;56.09;100564.88;5087502;28;20695;-78
2021/09/23 10:54:26;;;;;;;20.30;11.13;;;;;;;20.15;54.06;100566.19;5060206;28;20293;-78
2021/09/23 10:56:54;;;;;;;20.38;11.25;;;;;;;19.63;55.26;100564.19;5089973;27;20522;-79
2021/09/23 10:59:25;;;;;;;18.77;11.13;;;;;;;19.65;55.18;100572.88;5099083;28;20060;-78
2021/09/23 11:01:53;;;;;;;14.10;9.30;;;;;;;19.77;55.63;100545.94;5070277;27;20040;-78
2021/09/23 11:04:31;;;;;;;16.70;9.90;;;;;;;19.94;54.09;100542.44;5099450;27;20044;-79
2021/09/23 11:07:02;;;;;;;27.23;11.10;;;;;;;19.63;54.78;100539.28;5064955;27;20059;-78
2021/09/23 11:09:35;;;;;;;22.13;11.05;;;;;;;19.22;56.11;100541.47;5099986;27;20118;-78
2021/09/23 11:12:06;;;;;;;18.90;9.88;;;;;;;19.92;54.64;100536.44;5089822;28;20095;-78
2021/09/23 11:14:35;;;;;;;15.73;10.73;;;;;;;19.58;55.22;100534.38;5072445;28;20142;-78